sensor_id;sensor_type;location;lat;lon;timestamp;pressure;altitude;pressure_sealevel;temperature;humidity
44385;BME280;30101;32.778;34.994;2022-09-09T00:01:45;97375.97;;;24.38;74.63
44385;BME280;30101;32.778;34.994;2022-09-09T00:17:32;97369.81;;;24.32;74.67
44385;BME280;30101;32.778;34.994;2022-09-09T00:23:27;97374.44;;;24.32;75.25
44385;BME280;30101;32.778;34.994;2022-09-09T00:28:22;97378.81;;;24.33;75.05
44385;BME280;30101;32.778;34.994;2022-09-09T00:33:26;97382.63;;;24.32;75.12
44385;BME280;30101;32.778;34.994;2022-09-09T00:38:52;97391.94;;;24.31;75.67
44385;BME280;30101;32.778;34.994;2022-09-09T00:49:45;97390.34;;;24.30;75.50
44385;BME280;30101;32.778;34.994;2022-09-09T01:01:05;97391.44;;;24.29;75.94
44385;BME280;30101;32.778;34.994;2022-09-09T01:06:34;97393.38;;;24.28;76.02
44385;BME280;30101;32.778;34.994;2022-09-09T01:22:28;97406.50;;;24.26;76.63
44385;BME280;30101;32.778;34.994;2022-09-09T01:27:35;97398.31;;;24.26;76.50
44385;BME280;30101;32.778;34.994;2022-09-09T01:32:44;97395.91;;;24.25;76.40
44385;BME280;30101;32.778;34.994;2022-09-09T01:37:49;97388.03;;;24.23;76.64
44385;BME280;30101;32.778;34.994;2022-09-09T01:42:54;97386.09;;;24.23;76.53
44385;BME280;30101;32.778;34.994;2022-09-09T01:47:59;97391.56;;;24.23;76.52
44385;BME280;30101;32.778;34.994;2022-09-09T01:53:32;97390.56;;;24.19;76.87
44385;BME280;30101;32.778;34.994;2022-09-09T02:04:04;97409.66;;;24.19;76.95
44385;BME280;30101;32.778;34.994;2022-09-09T02:09:12;97408.03;;;24.18;76.89
44385;BME280;30101;32.778;34.994;2022-09-09T02:14:25;97410.28;;;24.16;76.98
44385;BME280;30101;32.778;34.994;2022-09-09T02:19:43;97416.31;;;24.13;77.25
44385;BME280;30101;32.778;34.994;2022-09-09T02:24:58;97415.84;;;24.11;77.34
44385;BME280;30101;32.778;34.994;2022-09-09T02:30:05;97416.97;;;24.10;77.33
44385;BME280;30101;32.778;34.994;2022-09-09T02:35:23;97418.06;;;24.09;77.52
44385;BME280;30101;32.778;34.994;2022-09-09T02:40:29;97423.84;;;24.08;77.48
44385;BME280;30101;32.778;34.994;2022-09-09T02:45:49;97421.91;;;24.08;77.22
44385;BME280;30101;32.778;34.994;2022-09-09T02:57:04;97422.81;;;24.04;77.56
44385;BME280;30101;32.778;34.994;2022-09-09T03:02:13;97417.78;;;23.97;77.76
44385;BME280;30101;32.778;34.994;2022-09-09T03:07:21;97424.25;;;24.01;77.86
44385;BME280;30101;32.778;34.994;2022-09-09T03:12:27;97418.28;;;23.99;77.87
44385;BME280;30101;32.778;34.994;2022-09-09T03:17:31;97420.19;;;23.99;78.16
44385;BME280;30101;32.778;34.994;2022-09-09T03:22:34;97426.47;;;23.99;78.34
44385;BME280;30101;32.778;34.994;2022-09-09T03:27:38;97425.97;;;23.97;78.18
44385;BME280;30101;32.778;34.994;2022-09-09T03:32:42;97425.97;;;23.97;78.37
44385;BME280;30101;32.778;34.994;2022-09-09T03:37:51;97430.63;;;23.97;78.52
44385;BME280;30101;32.778;34.994;2022-09-09T03:42:54;97434.94;;;23.98;78.50
44385;BME280;30101;32.778;34.994;2022-09-09T03:48:00;97437.38;;;23.99;78.58
44385;BME280;30101;32.778;34.994;2022-09-09T03:53:06;97439.19;;;24.04;78.74
44385;BME280;30101;32.778;34.994;2022-09-09T03:58:10;97444.34;;;24.05;78.68
44385;BME280;30101;32.778;34.994;2022-09-09T04:03:13;97446.47;;;24.08;78.83
44385;BME280;30101;32.778;34.994;2022-09-09T04:08:18;97446.53;;;24.17;79.10
44385;BME280;30101;32.778;34.994;2022-09-09T04:13:25;97455.81;;;24.30;79.18
44385;BME280;30101;32.778;34.994;2022-09-09T04:18:31;97452.28;;;24.43;78.71
44385;BME280;30101;32.778;34.994;2022-09-09T04:23:36;97456.09;;;24.56;78.79
44385;BME280;30101;32.778;34.994;2022-09-09T04:28:40;97451.22;;;24.66;78.75
44385;BME280;30101;32.778;34.994;2022-09-09T04:33:52;97458.75;;;24.83;78.68
44385;BME280;30101;32.778;34.994;2022-09-09T04:38:57;97466.34;;;24.95;78.46
44385;BME280;30101;32.778;34.994;2022-09-09T04:44:03;97450.84;;;25.04;78.38
44385;BME280;30101;32.778;34.994;2022-09-09T04:49:08;97460.13;;;25.17;77.78
44385;BME280;30101;32.778;34.994;2022-09-09T04:54:18;97460.34;;;25.29;77.75
44385;BME280;30101;32.778;34.994;2022-09-09T04:59:23;97461.56;;;25.45;77.65
44385;BME280;30101;32.778;34.994;2022-09-09T05:04:30;97463.41;;;25.90;76.68
44385;BME280;30101;32.778;34.994;2022-09-09T05:09:34;97468.41;;;26.71;75.12
44385;BME280;30101;32.778;34.994;2022-09-09T05:14:38;97472.69;;;27.50;73.28
44385;BME280;30101;32.778;34.994;2022-09-09T05:19:43;97464.72;;;27.74;72.57
44385;BME280;30101;32.778;34.994;2022-09-09T05:24:47;97473.44;;;27.67;72.20
44385;BME280;30101;32.778;34.994;2022-09-09T05:29:51;97479.81;;;27.42;72.25
44385;BME280;30101;32.778;34.994;2022-09-09T05:34:55;97476.78;;;27.18;72.34
44385;BME280;30101;32.778;34.994;2022-09-09T05:40:01;97486.75;;;26.96;72.23
44385;BME280;30101;32.778;34.994;2022-09-09T05:45:06;97481.00;;;26.72;71.77
44385;BME280;30101;32.778;34.994;2022-09-09T05:50:10;97491.78;;;26.68;71.86
44385;BME280;30101;32.778;34.994;2022-09-09T05:55:14;97485.00;;;26.66;71.51
44385;BME280;30101;32.778;34.994;2022-09-09T06:00:18;97492.25;;;26.79;70.87
44385;BME280;30101;32.778;34.994;2022-09-09T06:05:22;97491.44;;;26.96;70.00
44385;BME280;30101;32.778;34.994;2022-09-09T06:10:25;97497.09;;;26.91;69.96
44385;BME280;30101;32.778;34.994;2022-09-09T06:15:29;97496.13;;;26.95;69.60
44385;BME280;30101;32.778;34.994;2022-09-09T06:20:32;97502.91;;;27.06;69.25
44385;BME280;30101;32.778;34.994;2022-09-09T06:25:38;97505.31;;;27.08;69.14
44385;BME280;30101;32.778;34.994;2022-09-09T06:30:48;97504.84;;;27.14;69.01
44385;BME280;30101;32.778;34.994;2022-09-09T06:35:53;97515.00;;;27.23;68.73
44385;BME280;30101;32.778;34.994;2022-09-09T06:40:58;97514.50;;;27.38;68.00
44385;BME280;30101;32.778;34.994;2022-09-09T06:46:14;97510.91;;;27.46;67.75
44385;BME280;30101;32.778;34.994;2022-09-09T06:51:22;97509.94;;;27.51;67.69
44385;BME280;30101;32.778;34.994;2022-09-09T06:56:30;97513.03;;;27.49;67.66
44385;BME280;30101;32.778;34.994;2022-09-09T07:01:40;97518.97;;;27.51;67.75
44385;BME280;30101;32.778;34.994;2022-09-09T07:06:49;97529.44;;;27.58;66.90
44385;BME280;30101;32.778;34.994;2022-09-09T07:11:57;97525.72;;;27.62;66.61
44385;BME280;30101;32.778;34.994;2022-09-09T07:17:01;97527.38;;;27.72;66.37
44385;BME280;30101;32.778;34.994;2022-09-09T07:22:11;97526.84;;;27.79;65.94
44385;BME280;30101;32.778;34.994;2022-09-09T07:27:15;97525.06;;;27.83;64.95
44385;BME280;30101;32.778;34.994;2022-09-09T07:32:20;97515.00;;;27.95;64.23
44385;BME280;30101;32.778;34.994;2022-09-09T07:37:23;97512.53;;;28.11;63.73
44385;BME280;30101;32.778;34.994;2022-09-09T07:42:28;97516.13;;;28.33;63.25
44385;BME280;30101;32.778;34.994;2022-09-09T07:47:32;97520.66;;;28.58;62.16
44385;BME280;30101;32.778;34.994;2022-09-09T07:52:40;97515.56;;;28.98;61.77
44385;BME280;30101;32.778;34.994;2022-09-09T07:57:44;97514.50;;;29.45;60.53
44385;BME280;30101;32.778;34.994;2022-09-09T08:02:49;97515.19;;;29.75;59.31
44385;BME280;30101;32.778;34.994;2022-09-09T08:07:53;97504.44;;;30.06;58.28
44385;BME280;30101;32.778;34.994;2022-09-09T08:12:57;97503.31;;;30.32;56.79
44385;BME280;30101;32.778;34.994;2022-09-09T08:18:19;97494.53;;;30.67;55.35
44385;BME280;30101;32.778;34.994;2022-09-09T08:23:24;97492.22;;;30.93;53.63
44385;BME280;30101;32.778;34.994;2022-09-09T08:28:28;97500.53;;;31.09;51.89
44385;BME280;30101;32.778;34.994;2022-09-09T08:33:32;97487.69;;;31.01;50.62
44385;BME280;30101;32.778;34.994;2022-09-09T08:38:36;97479.53;;;30.92;50.00
44385;BME280;30101;32.778;34.994;2022-09-09T08:43:41;97481.50;;;30.92;49.88
44385;BME280;30101;32.778;34.994;2022-09-09T08:54:04;97474.19;;;30.83;48.83
44385;BME280;30101;32.778;34.994;2022-09-09T08:59:09;97473.38;;;30.83;48.11
44385;BME280;30101;32.778;34.994;2022-09-09T09:14:50;97466.06;;;30.62;47.65
44385;BME280;30101;32.778;34.994;2022-09-09T09:19:55;97461.16;;;30.68;46.49
44385;BME280;30101;32.778;34.994;2022-09-09T09:30:15;97463.31;;;30.75;45.47
44385;BME280;30101;32.778;34.994;2022-09-09T09:35:40;97455.72;;;30.72;45.38
44385;BME280;30101;32.778;34.994;2022-09-09T09:40:54;97451.81;;;30.73;44.48
44385;BME280;30101;32.778;34.994;2022-09-09T09:45:58;97447.22;;;30.77;45.12
44385;BME280;30101;32.778;34.994;2022-09-09T09:51:22;97454.88;;;30.83;43.72
44385;BME280;30101;32.778;34.994;2022-09-09T09:56:28;97446.97;;;30.82;43.51
44385;BME280;30101;32.778;34.994;2022-09-09T10:01:33;97427.81;;;30.73;42.90
44385;BME280;30101;32.778;34.994;2022-09-09T10:06:42;97436.44;;;30.72;43.49
44385;BME280;30101;32.778;34.994;2022-09-09T10:17:26;97424.25;;;30.60;43.30
44385;BME280;30101;32.778;34.994;2022-09-09T10:22:33;97422.81;;;30.51;42.70
44385;BME280;30101;32.778;34.994;2022-09-09T10:54:24;97385.44;;;30.25;43.25
44385;BME280;30101;32.778;34.994;2022-09-09T10:59:44;97391.19;;;30.20;43.42
44385;BME280;30101;32.778;34.994;2022-09-09T11:04:55;97390.63;;;30.15;43.64
44385;BME280;30101;32.778;34.994;2022-09-09T11:10:06;97398.22;;;30.18;43.68
44385;BME280;30101;32.778;34.994;2022-09-09T11:15:38;97381.44;;;30.11;44.05
44385;BME280;30101;32.778;34.994;2022-09-09T11:20:43;97388.66;;;30.03;44.23
44385;BME280;30101;32.778;34.994;2022-09-09T11:25:54;97379.25;;;30.04;44.75
44385;BME280;30101;32.778;34.994;2022-09-09T11:36:46;97368.50;;;29.87;45.42
44385;BME280;30101;32.778;34.994;2022-09-09T11:42:06;97374.34;;;29.85;45.80
44385;BME280;30101;32.778;34.994;2022-09-09T11:47:30;97366.66;;;29.66;46.44
44385;BME280;30101;32.778;34.994;2022-09-09T11:52:40;97362.78;;;29.55;46.30
44385;BME280;30101;32.778;34.994;2022-09-09T11:57:44;97363.31;;;29.48;46.37
44385;BME280;30101;32.778;34.994;2022-09-09T12:02:51;97366.41;;;29.47;46.87
44385;BME280;30101;32.778;34.994;2022-09-09T12:07:57;97362.75;;;29.43;46.07
44385;BME280;30101;32.778;34.994;2022-09-09T12:18:18;97354.38;;;29.39;46.83
44385;BME280;30101;32.778;34.994;2022-09-09T12:23:32;97347.84;;;29.44;46.66
44385;BME280;30101;32.778;34.994;2022-09-09T12:28:50;97349.56;;;29.36;46.25
44385;BME280;30101;32.778;34.994;2022-09-09T12:34:49;97341.19;;;29.33;46.82
44385;BME280;30101;32.778;34.994;2022-09-09T12:39:36;97345.44;;;29.30;47.68
44385;BME280;30101;32.778;34.994;2022-09-09T12:45:00;97340.72;;;29.18;48.02
44385;BME280;30101;32.778;34.994;2022-09-09T12:50:15;97338.84;;;29.10;48.45
44385;BME280;30101;32.778;34.994;2022-09-09T12:55:25;97334.03;;;29.07;49.21
44385;BME280;30101;32.778;34.994;2022-09-09T13:00:31;97341.34;;;29.03;49.38
44385;BME280;30101;32.778;34.994;2022-09-09T13:05:37;97339.97;;;28.97;49.28
44385;BME280;30101;32.778;34.994;2022-09-09T13:10:50;97332.88;;;28.96;50.00
44385;BME280;30101;32.778;34.994;2022-09-09T13:16:00;97334.94;;;28.99;50.63
44385;BME280;30101;32.778;34.994;2022-09-09T13:21:04;97331.06;;;29.00;50.25
44385;BME280;30101;32.778;34.994;2022-09-09T13:26:25;97332.53;;;28.97;50.47
44385;BME280;30101;32.778;34.994;2022-09-09T13:31:32;97328.25;;;28.88;50.14
44385;BME280;30101;32.778;34.994;2022-09-09T13:36:36;97322.38;;;28.77;50.79
44385;BME280;30101;32.778;34.994;2022-09-09T13:41:44;97333.03;;;28.79;50.89
44385;BME280;30101;32.778;34.994;2022-09-09T13:47:00;97335.19;;;28.73;51.17
44385;BME280;30101;32.778;34.994;2022-09-09T13:52:11;97328.63;;;28.65;51.37
44385;BME280;30101;32.778;34.994;2022-09-09T13:57:23;97335.47;;;28.59;51.68
44385;BME280;30101;32.778;34.994;2022-09-09T14:02:27;97343.66;;;28.47;51.82
44385;BME280;30101;32.778;34.994;2022-09-09T14:07:30;97342.59;;;28.39;51.76
44385;BME280;30101;32.778;34.994;2022-09-09T14:12:34;97348.50;;;28.29;52.25
44385;BME280;30101;32.778;34.994;2022-09-09T14:17:37;97355.78;;;28.25;52.34
44385;BME280;30101;32.778;34.994;2022-09-09T14:22:41;97353.38;;;28.23;52.82
44385;BME280;30101;32.778;34.994;2022-09-09T14:27:44;97360.31;;;28.21;53.22
44385;BME280;30101;32.778;34.994;2022-09-09T14:32:48;97357.13;;;28.19;53.26
44385;BME280;30101;32.778;34.994;2022-09-09T14:37:52;97367.03;;;28.11;53.69
44385;BME280;30101;32.778;34.994;2022-09-09T14:42:55;97377.25;;;28.02;53.86
44385;BME280;30101;32.778;34.994;2022-09-09T14:47:59;97370.88;;;27.89;54.10
44385;BME280;30101;32.778;34.994;2022-09-09T14:53:09;97365.97;;;27.74;54.66
44385;BME280;30101;32.778;34.994;2022-09-09T14:58:12;97374.19;;;27.65;54.59
44385;BME280;30101;32.778;34.994;2022-09-09T15:03:16;97374.72;;;27.59;54.50
44385;BME280;30101;32.778;34.994;2022-09-09T15:08:19;97369.44;;;27.54;54.67
44385;BME280;30101;32.778;34.994;2022-09-09T15:13:23;97365.56;;;27.46;55.01
44385;BME280;30101;32.778;34.994;2022-09-09T15:18:26;97358.19;;;27.38;55.40
44385;BME280;30101;32.778;34.994;2022-09-09T15:23:32;97359.84;;;27.30;55.49
44385;BME280;30101;32.778;34.994;2022-09-09T15:28:37;97365.34;;;27.22;55.50
44385;BME280;30101;32.778;34.994;2022-09-09T15:33:41;97366.53;;;27.12;55.73
44385;BME280;30101;32.778;34.994;2022-09-09T15:38:45;97366.03;;;27.01;56.12
44385;BME280;30101;32.778;34.994;2022-09-09T15:43:51;97369.13;;;26.91;56.25
44385;BME280;30101;32.778;34.994;2022-09-09T15:49:18;97362.06;;;26.81;56.43
44385;BME280;30101;32.778;34.994;2022-09-09T15:54:22;97370.28;;;26.73;56.67
44385;BME280;30101;32.778;34.994;2022-09-09T15:59:28;97369.81;;;26.62;56.93
44385;BME280;30101;32.778;34.994;2022-09-09T16:04:33;97371.44;;;26.54;57.43
44385;BME280;30101;32.778;34.994;2022-09-09T16:09:36;97377.88;;;26.50;57.52
44385;BME280;30101;32.778;34.994;2022-09-09T16:14:39;97381.44;;;26.42;57.98
44385;BME280;30101;32.778;34.994;2022-09-09T16:19:43;97378.63;;;26.33;58.32
44385;BME280;30101;32.778;34.994;2022-09-09T16:24:46;97391.03;;;26.30;58.88
44385;BME280;30101;32.778;34.994;2022-09-09T16:29:50;97393.31;;;26.28;58.68
44385;BME280;30101;32.778;34.994;2022-09-09T16:34:53;97393.94;;;26.25;59.37
44385;BME280;30101;32.778;34.994;2022-09-09T16:39:56;97396.03;;;26.20;59.08
44385;BME280;30101;32.778;34.994;2022-09-09T16:45:00;97401.63;;;26.15;59.66
44385;BME280;30101;32.778;34.994;2022-09-09T16:50:04;97403.44;;;26.11;59.63
44385;BME280;30101;32.778;34.994;2022-09-09T16:55:08;97412.75;;;26.09;59.84
44385;BME280;30101;32.778;34.994;2022-09-09T17:00:12;97413.38;;;26.06;59.99
44385;BME280;30101;32.778;34.994;2022-09-09T17:05:16;97426.25;;;26.06;60.39
44385;BME280;30101;32.778;34.994;2022-09-09T17:10:19;97420.63;;;26.02;60.30
44385;BME280;30101;32.778;34.994;2022-09-09T17:15:23;97432.53;;;25.98;60.72
44385;BME280;30101;32.778;34.994;2022-09-09T17:20:26;97432.84;;;25.96;60.43
44385;BME280;30101;32.778;34.994;2022-09-09T17:25:56;97433.47;;;25.93;60.41
44385;BME280;30101;32.778;34.994;2022-09-09T17:31:01;97440.88;;;25.93;60.93
44385;BME280;30101;32.778;34.994;2022-09-09T17:36:16;97448.91;;;25.89;60.94
44385;BME280;30101;32.778;34.994;2022-09-09T17:41:23;97458.88;;;25.85;60.83
44385;BME280;30101;32.778;34.994;2022-09-09T17:46:36;97455.34;;;25.85;61.16
44385;BME280;30101;32.778;34.994;2022-09-09T17:51:41;97460.63;;;25.81;61.47
44385;BME280;30101;32.778;34.994;2022-09-09T17:56:46;97471.88;;;25.79;62.09
44385;BME280;30101;32.778;34.994;2022-09-09T18:01:50;97477.97;;;25.76;62.13
44385;BME280;30101;32.778;34.994;2022-09-09T18:06:54;97472.03;;;25.74;61.99
44385;BME280;30101;32.778;34.994;2022-09-09T18:11:58;97471.50;;;25.72;62.19
44385;BME280;30101;32.778;34.994;2022-09-09T18:17:01;97481.34;;;25.73;62.74
44385;BME280;30101;32.778;34.994;2022-09-09T18:22:05;97494.22;;;25.73;62.65
44385;BME280;30101;32.778;34.994;2022-09-09T18:27:09;97483.56;;;25.71;62.69
44385;BME280;30101;32.778;34.994;2022-09-09T18:32:12;97484.19;;;25.68;63.16
44385;BME280;30101;32.778;34.994;2022-09-09T18:37:15;97474.19;;;25.64;62.96
44385;BME280;30101;32.778;34.994;2022-09-09T18:42:19;97482.38;;;25.64;63.30
44385;BME280;30101;32.778;34.994;2022-09-09T18:47:22;97481.91;;;25.62;63.74
44385;BME280;30101;32.778;34.994;2022-09-09T18:52:25;97477.88;;;25.59;63.39
44385;BME280;30101;32.778;34.994;2022-09-09T18:57:29;97478.50;;;25.56;63.83
44385;BME280;30101;32.778;34.994;2022-09-09T19:02:38;97477.22;;;25.53;64.09
44385;BME280;30101;32.778;34.994;2022-09-09T19:07:41;97474.81;;;25.52;63.83
44385;BME280;30101;32.778;34.994;2022-09-09T19:12:46;97477.53;;;25.52;63.72
44385;BME280;30101;32.778;34.994;2022-09-09T19:17:50;97475.59;;;25.52;63.68
44385;BME280;30101;32.778;34.994;2022-09-09T19:22:53;97467.41;;;25.52;63.81
44385;BME280;30101;32.778;34.994;2022-09-09T19:27:58;97472.06;;;25.52;64.08
44385;BME280;30101;32.778;34.994;2022-09-09T19:33:02;97469.94;;;25.49;64.31
44385;BME280;30101;32.778;34.994;2022-09-09T19:38:07;97479.06;;;25.44;64.28
44385;BME280;30101;32.778;34.994;2022-09-09T19:43:10;97476.66;;;25.43;64.12
44385;BME280;30101;32.778;34.994;2022-09-09T19:48:14;97480.84;;;25.40;64.06
44385;BME280;30101;32.778;34.994;2022-09-09T19:53:20;97471.84;;;25.40;64.27
44385;BME280;30101;32.778;34.994;2022-09-09T19:58:24;97485.00;;;25.38;64.34
44385;BME280;30101;32.778;34.994;2022-09-09T20:03:28;97488.53;;;25.38;64.55
44385;BME280;30101;32.778;34.994;2022-09-09T20:08:32;97481.44;;;25.37;64.83
44385;BME280;30101;32.778;34.994;2022-09-09T20:13:38;97483.69;;;25.35;64.54
44385;BME280;30101;32.778;34.994;2022-09-09T20:18:45;97488.16;;;25.31;64.79
44385;BME280;30101;32.778;34.994;2022-09-09T20:23:50;97486.56;;;25.30;64.93
44385;BME280;30101;32.778;34.994;2022-09-09T20:28:54;97483.34;;;25.28;65.00
44385;BME280;30101;32.778;34.994;2022-09-09T20:33:57;97485.88;;;25.24;65.38
44385;BME280;30101;32.778;34.994;2022-09-09T20:39:04;97472.53;;;25.23;64.95
44385;BME280;30101;32.778;34.994;2022-09-09T20:44:13;97473.13;;;25.20;64.81
44385;BME280;30101;32.778;34.994;2022-09-09T20:49:19;97486.00;;;25.19;65.10
44385;BME280;30101;32.778;34.994;2022-09-09T20:54:24;97484.72;;;25.17;65.25
44385;BME280;30101;32.778;34.994;2022-09-09T20:59:30;97483.41;;;25.14;65.40
44385;BME280;30101;32.778;34.994;2022-09-09T21:04:34;97473.91;;;25.12;65.35
44385;BME280;30101;32.778;34.994;2022-09-09T21:09:38;97476.94;;;25.10;65.25
44385;BME280;30101;32.778;34.994;2022-09-09T21:14:42;97476.47;;;25.08;65.30
44385;BME280;30101;32.778;34.994;2022-09-09T21:19:45;97482.22;;;25.07;65.44
44385;BME280;30101;32.778;34.994;2022-09-09T21:24:49;97482.00;;;25.03;65.73
44385;BME280;30101;32.778;34.994;2022-09-09T21:29:52;97479.88;;;25.00;65.73
44385;BME280;30101;32.778;34.994;2022-09-09T21:34:56;97487.28;;;24.99;65.48
44385;BME280;30101;32.778;34.994;2022-09-09T21:39:59;97486.31;;;24.95;65.66
44385;BME280;30101;32.778;34.994;2022-09-09T21:45:05;97480.31;;;24.93;65.98
44385;BME280;30101;32.778;34.994;2022-09-09T21:50:08;97472.75;;;24.90;66.11
44385;BME280;30101;32.778;34.994;2022-09-09T21:55:12;97478.50;;;24.89;66.04
44385;BME280;30101;32.778;34.994;2022-09-09T22:00:16;97472.88;;;24.85;65.96
44385;BME280;30101;32.778;34.994;2022-09-09T22:05:19;97478.94;;;24.82;66.04
44385;BME280;30101;32.778;34.994;2022-09-09T22:10:23;97480.06;;;24.81;65.60
44385;BME280;30101;32.778;34.994;2022-09-09T22:15:28;97478.56;;;24.75;65.70
44385;BME280;30101;32.778;34.994;2022-09-09T22:20:32;97472.81;;;24.77;65.93
44385;BME280;30101;32.778;34.994;2022-09-09T22:25:37;97474.22;;;24.74;65.83
44385;BME280;30101;32.778;34.994;2022-09-09T22:30:41;97468.28;;;24.72;65.58
44385;BME280;30101;32.778;34.994;2022-09-09T22:35:45;97465.34;;;24.68;65.31
44385;BME280;30101;32.778;34.994;2022-09-09T22:40:48;97459.06;;;24.68;65.54
44385;BME280;30101;32.778;34.994;2022-09-09T22:45:52;97455.06;;;24.65;65.27
44385;BME280;30101;32.778;34.994;2022-09-09T22:51:00;97454.25;;;24.65;65.71
44385;BME280;30101;32.778;34.994;2022-09-09T22:56:05;97453.72;;;24.63;65.59
44385;BME280;30101;32.778;34.994;2022-09-09T23:01:17;97457.59;;;24.62;65.72
44385;BME280;30101;32.778;34.994;2022-09-09T23:06:23;97451.63;;;24.60;65.90
44385;BME280;30101;32.778;34.994;2022-09-09T23:11:35;97448.09;;;24.59;65.73
44385;BME280;30101;32.778;34.994;2022-09-09T23:16:43;97440.50;;;24.56;65.89
44385;BME280;30101;32.778;34.994;2022-09-09T23:21:47;97443.56;;;24.55;65.94
44385;BME280;30101;32.778;34.994;2022-09-09T23:26:50;97437.59;;;24.53;66.00
44385;BME280;30101;32.778;34.994;2022-09-09T23:31:54;97434.34;;;24.51;66.36
44385;BME280;30101;32.778;34.994;2022-09-09T23:36:58;97425.69;;;24.48;66.30
44385;BME280;30101;32.778;34.994;2022-09-09T23:42:01;97429.53;;;24.47;66.60
44385;BME280;30101;32.778;34.994;2022-09-09T23:47:08;97428.22;;;24.45;66.86
44385;BME280;30101;32.778;34.994;2022-09-09T23:52:11;97429.97;;;24.41;66.70
44385;BME280;30101;32.778;34.994;2022-09-09T23:57:15;97435.72;;;24.39;67.34
